createdAt,value
2018-02-16T00:01:57.563Z,100900.30
2018-02-16T00:04:25.187Z,100900.30
2018-02-16T00:06:52.751Z,100906.28
2018-02-16T00:09:20.382Z,100897.69
2018-02-16T00:11:48.010Z,100905.68
2018-02-16T00:14:15.686Z,100904.74
2018-02-16T00:16:43.323Z,100904.58
2018-02-16T00:19:10.962Z,100904.38
2018-02-16T00:21:38.603Z,100904.66
2018-02-16T00:24:06.343Z,100900.06
2018-02-16T00:26:33.922Z,100900.22
2018-02-16T00:29:01.554Z,100901.50
2018-02-16T00:31:29.131Z,100900.17
2018-02-16T00:33:56.714Z,100900.12
2018-02-16T00:36:24.334Z,100896.82
2018-02-16T00:38:51.972Z,100892.67
2018-02-16T00:41:19.602Z,100888.40
2018-02-16T00:43:47.182Z,100893.19
2018-02-16T00:46:14.819Z,100887.77
2018-02-16T00:48:42.445Z,100889.42
2018-02-16T00:51:10.056Z,100890.53
2018-02-16T00:53:37.638Z,100889.90
2018-02-16T00:56:05.222Z,100890.60
2018-02-16T00:58:32.851Z,100892.41
2018-02-16T01:01:00.482Z,100893.90
2018-02-16T01:03:28.062Z,100891.62
2018-02-16T01:05:55.634Z,100885.53
2018-02-16T01:08:23.212Z,100888.89
2018-02-16T01:10:50.864Z,100889.22
2018-02-16T01:13:18.500Z,100887.41
2018-02-16T01:15:46.070Z,100890.32
2018-02-16T01:18:13.703Z,100885.95
2018-02-16T01:20:41.281Z,100883.30
2018-02-16T01:23:08.919Z,100886.02
2018-02-16T01:25:36.614Z,100888.73
2018-02-16T01:28:04.242Z,100884.67
2018-02-16T01:30:31.830Z,100885.64
2018-02-16T01:32:59.466Z,100880.48
2018-02-16T01:35:27.038Z,100885.91
2018-02-16T01:37:54.643Z,100885.00
2018-02-16T01:40:22.214Z,100890.95
2018-02-16T01:42:49.797Z,100895.22
2018-02-16T01:45:17.374Z,100897.02
2018-02-16T01:47:44.986Z,100894.78
2018-02-16T01:50:12.687Z,100896.06
2018-02-16T01:52:40.318Z,100892.98
2018-02-16T01:55:07.900Z,100905.17
2018-02-16T01:57:35.547Z,100903.36
2018-02-16T02:00:03.281Z,100909.75
2018-02-16T02:02:30.923Z,100914.33
2018-02-16T02:04:58.499Z,100915.77
2018-02-16T02:07:26.070Z,100912.88
2018-02-16T02:09:53.656Z,100910.61
2018-02-16T02:12:21.234Z,100920.48
2018-02-16T02:14:48.866Z,100915.88
2018-02-16T02:17:16.448Z,100918.06
2018-02-16T02:19:44.087Z,100916.03
2018-02-16T02:22:11.647Z,100916.83
2018-02-16T02:24:39.268Z,100916.25
2018-02-16T02:27:06.956Z,100921.33
2018-02-16T02:29:34.540Z,100920.47
2018-02-16T02:32:02.177Z,100923.88
2018-02-16T02:34:29.753Z,100926.43
2018-02-16T02:36:57.334Z,100924.73
2018-02-16T02:39:24.964Z,100927.08
2018-02-16T02:41:52.591Z,100928.39
2018-02-16T02:44:20.215Z,100926.16
2018-02-16T02:46:47.803Z,100926.20
2018-02-16T02:49:15.439Z,100924.08
2018-02-16T02:51:43.132Z,100929.41
2018-02-16T02:54:10.702Z,100930.36
2018-02-16T02:56:38.269Z,100929.03
2018-02-16T02:59:05.905Z,100929.81
2018-02-16T03:01:33.530Z,100930.82
2018-02-16T03:04:01.169Z,100934.17
2018-02-16T03:06:32.614Z,100935.53
2018-02-16T03:09:00.208Z,100937.19
2018-02-16T03:11:27.859Z,100936.87
2018-02-16T03:13:55.425Z,100932.77
2018-02-16T03:16:23.110Z,100932.39
2018-02-16T03:18:50.677Z,100941.66
2018-02-16T03:21:18.313Z,100939.56
2018-02-16T03:23:45.955Z,100939.98
2018-02-16T03:26:13.526Z,100944.13
2018-02-16T03:28:41.158Z,100937.53
2018-02-16T03:31:08.734Z,100942.22
2018-02-16T03:33:36.302Z,100945.41
2018-02-16T03:36:03.892Z,100954.70
2018-02-16T03:38:31.515Z,100942.41
2018-02-16T03:40:59.156Z,100945.30
2018-02-16T03:43:26.730Z,100950.59
2018-02-16T03:45:54.366Z,100951.64
2018-02-16T03:48:21.941Z,100944.77
2018-02-16T03:50:49.509Z,100951.95
2018-02-16T03:53:17.143Z,100959.17
2018-02-16T03:55:44.778Z,100960.95
2018-02-16T03:58:12.350Z,100959.55
2018-02-16T04:00:39.921Z,100965.40
2018-02-16T04:03:07.550Z,100960.19
2018-02-16T04:05:35.242Z,100959.44
2018-02-16T04:08:02.881Z,100956.11
2018-02-16T04:10:30.455Z,100955.63
2018-02-16T04:12:58.034Z,100969.73
2018-02-16T04:15:25.739Z,100962.28
2018-02-16T04:17:53.363Z,100968.78
2018-02-16T04:20:20.931Z,100972.72
2018-02-16T04:22:48.516Z,100972.19
2018-02-16T04:25:16.140Z,100981.34
2018-02-16T04:27:43.770Z,100982.92
2018-02-16T04:30:11.407Z,100982.52
2018-02-16T04:32:38.989Z,100979.16
2018-02-16T04:35:08.382Z,100990.08
2018-02-16T04:37:36.159Z,100987.62
2018-02-16T04:40:03.731Z,100990.34
2018-02-16T04:42:31.364Z,100992.23
2018-02-16T04:44:58.935Z,100988.98
2018-02-16T04:47:26.486Z,100991.06
2018-02-16T04:49:54.078Z,100994.47
2018-02-16T04:52:21.710Z,100997.08
2018-02-16T04:54:49.409Z,101004.17
2018-02-16T04:57:17.028Z,101007.63
2018-02-16T04:59:44.597Z,101015.19
2018-02-16T05:02:12.193Z,101012.15
2018-02-16T05:04:39.770Z,101021.28
2018-02-16T05:07:07.404Z,101015.53
2018-02-16T05:09:34.973Z,101024.05
2018-02-16T05:12:02.543Z,101032.46
2018-02-16T05:14:30.184Z,101030.75
2018-02-16T05:16:57.758Z,101031.69
2018-02-16T05:19:25.444Z,101037.77
2018-02-16T05:21:53.084Z,101043.84
2018-02-16T05:24:20.672Z,101050.49
2018-02-16T05:26:48.244Z,101048.05
2018-02-16T05:29:15.815Z,101054.30
2018-02-16T05:31:43.510Z,101059.48
2018-02-16T05:37:09.366Z,101061.44
2018-02-16T05:39:36.997Z,101060.45
2018-02-16T05:42:04.574Z,101068.81
2018-02-16T05:44:32.218Z,101069.50
2018-02-16T05:46:59.785Z,101071.16
2018-02-16T05:49:27.418Z,101065.23
2018-02-16T05:51:54.981Z,101066.70
2018-02-16T05:54:22.549Z,101069.23
2018-02-16T05:56:50.121Z,101073.16
2018-02-16T05:59:17.772Z,101074.61
2018-02-16T06:01:45.410Z,101070.85
2018-02-16T06:04:13.060Z,101074.21
2018-02-16T06:06:40.647Z,101076.95
2018-02-16T06:09:08.398Z,101077.91
2018-02-16T06:11:36.022Z,101083.69
2018-02-16T06:14:03.710Z,101083.79
2018-02-16T06:16:31.282Z,101086.53
2018-02-16T06:18:58.854Z,101084.94
2018-02-16T06:21:26.444Z,101076.63
2018-02-16T06:23:54.010Z,101071.03
2018-02-16T06:26:21.649Z,101064.27
2018-02-16T06:28:49.292Z,101065.87
2018-02-16T06:31:16.865Z,101064.53
2018-02-16T06:33:44.458Z,101069.23
2018-02-16T06:36:12.033Z,101061.57
2018-02-16T06:38:39.662Z,101058.56
2018-02-16T06:41:07.290Z,101052.52
2018-02-16T06:43:34.872Z,101061.72
2018-02-16T06:46:02.454Z,101062.34
2018-02-16T06:48:30.077Z,101058.52
2018-02-16T06:50:57.770Z,101061.27
2018-02-16T06:53:25.352Z,101055.38
2018-02-16T06:55:53.040Z,101058.17
2018-02-16T06:58:20.680Z,101059.27
2018-02-16T07:00:48.342Z,101060.66
2018-02-16T07:03:15.961Z,101052.69
2018-02-16T07:05:43.594Z,101050.55
2018-02-16T07:08:11.227Z,101053.39
2018-02-16T07:10:38.870Z,101053.67
2018-02-16T07:13:06.447Z,101046.11
2018-02-16T07:15:34.071Z,101047.97
2018-02-16T07:18:01.639Z,101049.30
2018-02-16T07:20:30.473Z,101054.34
2018-02-16T07:22:58.118Z,101052.94
2018-02-16T07:25:25.693Z,101043.77
2018-02-16T07:27:53.327Z,101049.33
2018-02-16T07:30:20.903Z,101044.41
2018-02-16T07:32:48.488Z,101046.95
2018-02-16T07:35:16.066Z,101046.47
2018-02-16T07:37:43.704Z,101049.92
2018-02-16T07:40:11.337Z,101056.80
2018-02-16T07:42:38.905Z,101049.77
2018-02-16T07:45:06.484Z,101057.17
2018-02-16T07:47:34.068Z,101059.72
2018-02-16T07:50:01.645Z,101062.40
2018-02-16T07:52:29.263Z,101060.23
2018-02-16T07:54:56.990Z,101065.55
2018-02-16T07:57:24.594Z,101049.23
2018-02-16T07:59:52.185Z,101055.05
2018-02-16T08:02:20.408Z,101059.24
2018-02-16T08:04:48.116Z,101060.64
2018-02-16T08:07:15.777Z,101060.48
2018-02-16T08:09:43.427Z,101060.48
2018-02-16T08:12:11.063Z,101061.92
2018-02-16T08:14:38.638Z,101059.30
2018-02-16T08:17:06.261Z,101055.25
2018-02-16T08:19:33.905Z,101054.30
2018-02-16T08:22:01.479Z,101060.25
2018-02-16T08:24:29.125Z,101063.81
2018-02-16T08:26:56.697Z,101055.22
2018-02-16T08:29:24.315Z,101053.23
2018-02-16T08:31:51.890Z,101058.39
2018-02-16T08:34:20.304Z,101058.45
2018-02-16T08:36:47.886Z,101058.22
2018-02-16T08:39:15.531Z,101055.37
2018-02-16T08:41:43.168Z,101053.60
2018-02-16T08:44:10.798Z,101048.50
2018-02-16T08:46:38.393Z,101045.12
2018-02-16T08:49:06.033Z,101038.89
2018-02-16T08:51:33.601Z,101045.69
2018-02-16T08:54:01.292Z,101032.11
2018-02-16T08:56:28.870Z,101034.91
2018-02-16T08:58:56.457Z,101025.57
2018-02-16T09:01:24.124Z,101031.72
2018-02-16T09:03:51.749Z,101028.17
2018-02-16T09:06:19.370Z,101031.56
2018-02-16T09:08:47.006Z,101032.52
2018-02-16T09:11:14.597Z,101034.88
2018-02-16T09:13:42.178Z,101029.27
2018-02-16T09:16:09.755Z,101031.61
2018-02-16T09:18:37.454Z,101035.31
2018-02-16T09:21:05.087Z,101033.16
2018-02-16T09:23:32.666Z,101032.02
2018-02-16T09:26:00.270Z,101026.61
2018-02-16T09:28:27.849Z,101023.31
2018-02-16T09:30:55.482Z,101020.52
2018-02-16T09:33:23.056Z,101014.52
2018-02-16T09:35:52.234Z,101011.90
2018-02-16T09:38:19.821Z,101007.19
2018-02-16T09:40:47.394Z,101013.88
2018-02-16T09:43:15.030Z,101015.44
2018-02-16T09:45:42.611Z,101012.52
2018-02-16T09:48:10.248Z,101011.59
2018-02-16T09:50:37.891Z,101016.61
2018-02-16T09:53:05.470Z,101005.83
2018-02-16T09:55:33.112Z,101005.34
2018-02-16T09:58:00.742Z,100995.84
2018-02-16T10:00:28.333Z,100996.27
2018-02-16T10:02:55.982Z,100997.32
2018-02-16T10:05:23.610Z,100998.93
2018-02-16T10:07:51.258Z,100995.82
2018-02-16T10:10:18.890Z,100993.27
2018-02-16T10:12:46.496Z,100986.95
2018-02-16T10:15:14.142Z,100992.87
2018-02-16T10:17:41.776Z,100995.83
2018-02-16T10:20:09.466Z,100995.43
2018-02-16T10:22:37.127Z,100999.52
2018-02-16T10:25:04.704Z,100992.27
2018-02-16T10:27:32.328Z,100986.20
2018-02-16T10:29:59.973Z,100989.06
2018-02-16T10:32:27.615Z,100981.44
2018-02-16T10:34:55.185Z,100983.21
2018-02-16T10:37:22.758Z,100978.45
2018-02-16T10:39:50.343Z,100979.13
2018-02-16T10:42:17.910Z,100970.28
2018-02-16T10:44:45.544Z,100971.52
2018-02-16T10:47:13.117Z,100962.76
2018-02-16T10:49:40.749Z,100956.41
2018-02-16T10:52:08.418Z,100960.96
2018-02-16T10:54:35.986Z,100955.41
2018-02-16T10:57:03.613Z,100953.04
2018-02-16T10:59:31.248Z,100951.49
2018-02-16T11:02:04.386Z,100943.38
2018-02-16T11:04:37.473Z,100942.60
2018-02-16T11:10:06.346Z,100952.42
2018-02-16T11:12:33.981Z,100949.23
2018-02-16T11:15:01.614Z,100936.86
2018-02-16T11:17:29.182Z,100928.53
2018-02-16T11:19:56.802Z,100928.16
2018-02-16T11:22:24.429Z,100935.14
2018-02-16T11:24:52.125Z,100929.58
2018-02-16T11:27:19.695Z,100928.83
2018-02-16T11:29:47.259Z,100925.92
2018-02-16T11:32:14.876Z,100930.42
2018-02-16T11:34:42.422Z,100923.59
2018-02-16T11:37:10.046Z,100925.34
2018-02-16T11:39:37.638Z,100915.72
2018-02-16T11:42:05.202Z,100916.66
2018-02-16T11:44:32.775Z,100914.02
2018-02-16T11:47:00.351Z,100923.19
2018-02-16T11:49:27.991Z,100911.58
2018-02-16T11:51:55.568Z,100912.98
2018-02-16T11:54:23.184Z,100910.97
2018-02-16T11:56:50.826Z,100910.55
2018-02-16T11:59:18.408Z,100915.39
2018-02-16T12:01:46.037Z,100914.23
2018-02-16T12:04:13.610Z,100916.58
2018-02-16T12:06:41.315Z,100919.89
2018-02-16T12:09:08.906Z,100914.28
2018-02-16T12:11:36.469Z,100910.99
2018-02-16T12:14:04.206Z,100911.04
2018-02-16T12:16:31.784Z,100913.00
2018-02-16T12:18:59.352Z,100907.96
2018-02-16T12:21:27.008Z,100908.02
2018-02-16T12:23:54.592Z,100912.70
2018-02-16T12:26:22.283Z,100910.15
2018-02-16T12:28:49.858Z,100919.04
2018-02-16T12:31:17.430Z,100905.70
2018-02-16T12:33:45.012Z,100908.15
2018-02-16T12:36:12.596Z,100912.70
2018-02-16T12:38:40.237Z,100904.87
2018-02-16T12:41:07.809Z,100905.17
2018-02-16T12:43:35.435Z,100903.29
2018-02-16T12:46:03.071Z,100899.34
2018-02-16T12:48:30.712Z,100905.27
2018-02-16T12:50:58.360Z,100906.30
2018-02-16T12:53:25.933Z,100916.26
2018-02-16T12:55:53.515Z,100919.41
2018-02-16T12:58:21.158Z,100918.79
2018-02-16T13:00:48.735Z,100921.30
2018-02-16T13:03:16.370Z,100920.91
2018-02-16T13:05:43.995Z,100912.63
2018-02-16T13:08:11.565Z,100922.53
2018-02-16T13:10:39.149Z,100912.36
2018-02-16T13:13:06.713Z,100920.15
2018-02-16T13:15:34.349Z,100908.56
2018-02-16T13:18:01.983Z,100911.30
2018-02-16T13:20:29.558Z,100914.57
2018-02-16T13:22:57.195Z,100912.11
2018-02-16T13:25:24.797Z,100910.22
2018-02-16T13:27:52.477Z,100907.63
2018-02-16T13:30:20.104Z,100904.81
2018-02-16T13:32:47.734Z,100894.87
2018-02-16T13:35:15.325Z,100887.00
2018-02-16T13:37:42.955Z,100891.17
2018-02-16T13:40:10.605Z,100891.52
2018-02-16T13:42:38.235Z,100886.57
2018-02-16T13:45:05.802Z,100888.97
2018-02-16T13:47:33.448Z,100891.52
2018-02-16T13:50:01.101Z,100885.81
2018-02-16T13:52:28.721Z,100890.69
2018-02-16T13:54:56.306Z,100889.03
2018-02-16T13:57:23.869Z,100889.64
2018-02-16T13:59:51.478Z,100881.48
2018-02-16T14:02:19.051Z,100879.43
2018-02-16T14:04:46.681Z,100880.18
2018-02-16T14:07:14.247Z,100875.09
2018-02-16T14:09:41.817Z,100868.98
2018-02-16T14:15:07.701Z,100859.16
2018-02-16T14:17:35.333Z,100851.33
2018-02-16T14:20:02.979Z,100846.45
2018-02-16T14:22:30.755Z,100842.10
2018-02-16T14:24:58.394Z,100843.58
2018-02-16T14:27:26.025Z,100836.23
2018-02-16T14:29:53.650Z,100827.16
2018-02-16T14:32:21.279Z,100830.27
2018-02-16T14:34:49.641Z,100831.47
2018-02-16T14:37:17.297Z,100831.14
2018-02-16T14:39:44.874Z,100833.97
2018-02-16T14:42:12.498Z,100832.30
2018-02-16T14:44:40.262Z,100842.18
2018-02-16T14:47:07.935Z,100838.53
2018-02-16T14:49:35.625Z,100842.48
2018-02-16T14:52:03.195Z,100845.55
2018-02-16T14:54:30.887Z,100848.23
2018-02-16T14:56:58.450Z,100855.09
2018-02-16T14:59:26.082Z,100855.27
2018-02-16T15:01:53.669Z,100859.94
2018-02-16T15:04:21.238Z,100844.50
2018-02-16T15:06:48.834Z,100852.13
2018-02-16T15:09:16.427Z,100846.40
2018-02-16T15:11:44.066Z,100845.19
2018-02-16T15:14:11.706Z,100852.41
2018-02-16T15:16:39.339Z,100852.27
2018-02-16T15:19:06.962Z,100847.37
2018-02-16T15:21:34.546Z,100845.40
2018-02-16T15:24:02.183Z,100844.98
2018-02-16T15:26:29.758Z,100848.34
2018-02-16T15:28:57.391Z,100845.55
2018-02-16T15:31:25.034Z,100849.40
2018-02-16T15:33:52.667Z,100851.19
2018-02-16T15:36:20.256Z,100856.31
2018-02-16T15:38:47.839Z,100857.12
2018-02-16T15:41:15.491Z,100861.64
2018-02-16T15:43:43.114Z,100864.27
2018-02-16T15:46:10.682Z,100868.58
2018-02-16T15:48:38.307Z,100870.64
2018-02-16T15:51:06.107Z,100871.18
2018-02-16T15:53:33.743Z,100869.96
2018-02-16T15:56:01.443Z,100869.72
2018-02-16T15:58:29.070Z,100866.84
2018-02-16T16:00:56.697Z,100877.34
2018-02-16T16:03:24.355Z,100880.02
2018-02-16T16:05:51.955Z,100877.71
2018-02-16T16:08:19.590Z,100885.42
2018-02-16T16:10:47.159Z,100884.12
2018-02-16T16:13:14.755Z,100884.45
2018-02-16T16:15:42.433Z,100881.13
2018-02-16T16:18:10.004Z,100884.98
2018-02-16T16:20:37.694Z,100890.95
2018-02-16T16:23:05.284Z,100888.95
2018-02-16T16:25:32.926Z,100894.02
2018-02-16T16:28:00.515Z,100895.89
2018-02-16T16:30:28.147Z,100896.45
2018-02-16T16:32:55.833Z,100894.13
2018-02-16T16:35:23.476Z,100897.77
2018-02-16T16:37:51.145Z,100896.97
2018-02-16T16:40:18.721Z,100909.73
2018-02-16T16:42:46.300Z,100907.04
2018-02-16T16:45:13.930Z,100905.50
2018-02-16T16:47:41.565Z,100902.57
2018-02-16T16:50:09.196Z,100908.91
2018-02-16T16:52:36.893Z,100902.38
2018-02-16T16:55:04.572Z,100900.67
2018-02-16T16:57:32.271Z,100907.86
2018-02-16T16:59:59.847Z,100915.71
2018-02-16T17:02:27.453Z,100914.33
2018-02-16T17:04:55.027Z,100922.05
2018-02-16T17:07:22.606Z,100917.14
2018-02-16T17:09:50.302Z,100922.66
2018-02-16T17:12:17.888Z,100918.77
2018-02-16T17:14:45.499Z,100916.51
2018-02-16T17:17:13.087Z,100915.66
2018-02-16T17:19:40.681Z,100919.25
2018-02-16T17:22:08.304Z,100917.65
2018-02-16T17:24:35.875Z,100922.56
2018-02-16T17:27:03.463Z,100918.00
2018-02-16T17:29:31.051Z,100914.33
2018-02-16T17:31:58.629Z,100915.34
2018-02-16T17:34:26.269Z,100915.22
2018-02-16T17:36:53.854Z,100918.44
2018-02-16T17:39:21.485Z,100913.09
2018-02-16T17:41:49.077Z,100911.11
2018-02-16T17:44:16.716Z,100908.23
2018-02-16T17:46:44.426Z,100905.95
2018-02-16T17:49:12.017Z,100900.92
2018-02-16T17:51:39.617Z,100895.91
2018-02-16T17:54:07.403Z,100904.80
2018-02-16T17:56:34.976Z,100907.45
2018-02-16T17:59:02.626Z,100903.03
2018-02-16T18:01:30.458Z,100905.34
2018-02-16T18:03:58.094Z,100901.56
2018-02-16T18:06:25.743Z,100904.72
2018-02-16T18:08:53.375Z,100903.84
2018-02-16T18:11:21.020Z,100895.50
2018-02-16T18:13:48.594Z,100900.92
2018-02-16T18:16:16.160Z,100902.73
2018-02-16T18:18:43.734Z,100900.50
2018-02-16T18:21:11.384Z,100898.39
2018-02-16T18:23:39.015Z,100904.97
2018-02-16T18:26:06.585Z,100904.50
2018-02-16T18:28:34.151Z,100904.97
2018-02-16T18:31:01.733Z,100891.30
2018-02-16T18:33:29.302Z,100891.80
2018-02-16T18:35:56.939Z,100896.64
2018-02-16T18:38:24.514Z,100899.27
2018-02-16T18:40:52.078Z,100895.24
2018-02-16T18:43:19.716Z,100892.89
2018-02-16T18:45:47.343Z,100888.28
2018-02-16T18:48:14.974Z,100897.20
2018-02-16T18:50:42.564Z,100898.43
2018-02-16T18:53:10.143Z,100896.77
2018-02-16T18:55:37.777Z,100895.50
2018-02-16T18:58:05.353Z,100895.64
2018-02-16T19:00:32.981Z,100895.70
2018-02-16T19:03:00.618Z,100900.44
2018-02-16T19:05:28.269Z,100901.53
2018-02-16T19:07:55.852Z,100898.35
2018-02-16T19:10:23.403Z,100903.20
2018-02-16T19:12:51.107Z,100907.46
2018-02-16T19:15:18.854Z,100914.96
2018-02-16T19:17:46.434Z,100915.71
2018-02-16T19:20:14.016Z,100911.45
2018-02-16T19:22:41.629Z,100908.13
2018-02-16T19:25:09.310Z,100913.99
2018-02-16T19:27:36.931Z,100914.61
2018-02-16T19:30:04.511Z,100915.56
2018-02-16T19:32:32.241Z,100913.20
2018-02-16T19:34:59.818Z,100916.64
2018-02-16T19:37:27.518Z,100913.70
2018-02-16T19:39:55.095Z,100910.48
2018-02-16T19:42:22.666Z,100904.31
2018-02-16T19:44:50.309Z,100904.37
2018-02-16T19:47:17.883Z,100903.13
2018-02-16T19:49:45.583Z,100902.98
2018-02-16T19:52:13.158Z,100900.91
2018-02-16T19:54:40.711Z,100904.59
2018-02-16T19:57:08.346Z,100895.63
2018-02-16T19:59:35.922Z,100899.38
2018-02-16T20:02:03.687Z,100891.35
2018-02-16T20:04:31.262Z,100888.89
2018-02-16T20:06:58.840Z,100889.02
2018-02-16T20:09:26.492Z,100890.01
2018-02-16T20:11:54.121Z,100896.73
2018-02-16T20:14:21.783Z,100898.39
2018-02-16T20:16:49.391Z,100899.72
2018-02-16T20:19:16.966Z,100899.50
2018-02-16T20:21:44.561Z,100896.23
2018-02-16T20:24:12.134Z,100905.99
2018-02-16T20:26:39.761Z,100904.33
2018-02-16T20:29:07.343Z,100903.77
2018-02-16T20:31:34.991Z,100901.86
2018-02-16T20:34:02.610Z,100908.41
2018-02-16T20:36:30.195Z,100911.86
2018-02-16T20:38:57.830Z,100907.45
2018-02-16T20:41:25.407Z,100903.95
2018-02-16T20:43:52.978Z,100905.41
2018-02-16T20:46:20.543Z,100896.64
2018-02-16T20:48:48.114Z,100895.05
2018-02-16T20:51:15.749Z,100895.48
2018-02-16T20:53:43.322Z,100905.87
2018-02-16T20:56:10.923Z,100905.16
2018-02-16T20:58:38.506Z,100906.27
2018-02-16T21:01:06.076Z,100904.08
2018-02-16T21:03:33.698Z,100896.20
2018-02-16T21:06:01.311Z,100902.93
2018-02-16T21:08:28.929Z,100898.27
2018-02-16T21:10:56.567Z,100899.64
2018-02-16T21:13:24.153Z,100908.98
2018-02-16T21:15:51.779Z,100906.04
2018-02-16T21:18:19.415Z,100905.66
2018-02-16T21:20:47.051Z,100899.98
2018-02-16T21:23:14.633Z,100894.24
2018-02-16T21:25:42.217Z,100898.30
2018-02-16T21:28:09.845Z,100902.53
2018-02-16T21:30:37.422Z,100905.90
2018-02-16T21:33:05.029Z,100900.22
2018-02-16T21:35:32.707Z,100897.70
2018-02-16T21:38:00.368Z,100907.16
2018-02-16T21:40:28.048Z,100907.44
2018-02-16T21:42:55.626Z,100908.66
2018-02-16T21:45:23.198Z,100923.95
2018-02-16T21:47:50.846Z,100926.73
2018-02-16T21:50:18.479Z,100928.55
2018-02-16T21:52:46.109Z,100925.78
2018-02-16T21:55:13.678Z,100923.44
2018-02-16T21:57:41.238Z,100918.34
2018-02-16T22:00:08.858Z,100915.44
2018-02-16T22:02:36.430Z,100915.72
2018-02-16T22:05:04.059Z,100924.06
2018-02-16T22:07:31.686Z,100936.06
2018-02-16T22:09:59.249Z,100945.12
2018-02-16T22:12:26.907Z,100951.82
2018-02-16T22:14:54.430Z,100963.05
2018-02-16T22:17:22.132Z,100972.98
2018-02-16T22:19:49.708Z,100979.76
2018-02-16T22:22:17.279Z,100975.64
2018-02-16T22:24:44.918Z,100974.26
2018-02-16T22:27:12.499Z,100985.74
2018-02-16T22:29:40.127Z,100983.39
2018-02-16T22:32:07.761Z,100970.92
2018-02-16T22:34:35.340Z,100965.25
2018-02-16T22:37:02.966Z,100962.84
2018-02-16T22:39:30.606Z,100955.92
2018-02-16T22:41:58.291Z,100960.20
2018-02-16T22:44:25.914Z,100968.38
2018-02-16T22:46:53.482Z,100975.05
2018-02-16T22:49:21.065Z,100979.41
2018-02-16T22:51:48.632Z,100978.39
2018-02-16T22:54:16.202Z,100971.77
2018-02-16T22:56:43.902Z,100968.30
2018-02-16T22:59:11.530Z,100963.14
2018-02-16T23:01:39.090Z,100956.39
2018-02-16T23:04:06.662Z,100957.38
2018-02-16T23:06:34.218Z,100949.64
2018-02-16T23:09:01.846Z,100954.91
2018-02-16T23:11:29.471Z,100954.98
2018-02-16T23:13:57.029Z,100953.92
2018-02-16T23:16:24.607Z,100954.34
2018-02-16T23:18:52.189Z,100966.61
2018-02-16T23:21:19.753Z,100967.75
2018-02-16T23:23:47.390Z,100963.48
2018-02-16T23:26:14.960Z,100958.79
2018-02-16T23:28:42.522Z,100956.39
2018-02-16T23:31:10.108Z,100948.83
2018-02-16T23:33:37.735Z,100944.81
2018-02-16T23:36:05.373Z,100941.86
2018-02-16T23:38:33.014Z,100931.66
2018-02-16T23:41:00.647Z,100933.45
2018-02-16T23:43:28.162Z,100939.47
2018-02-16T23:45:55.802Z,100951.52
2018-02-16T23:48:23.442Z,100953.31
2018-02-16T23:50:51.016Z,100954.26
2018-02-16T23:53:18.591Z,100963.45
2018-02-16T23:55:46.216Z,100968.74
2018-02-16T23:58:13.890Z,100962.55
